createdAt,value
2023-03-18T00:01:09.695Z,7.35
2023-03-18T00:03:39.764Z,8.20
2023-03-18T00:06:09.502Z,7.47
2023-03-18T00:08:37.183Z,7.90
2023-03-18T00:11:05.570Z,7.72
2023-03-18T00:13:34.721Z,7.03
2023-03-18T00:16:02.585Z,8.25
2023-03-18T00:18:30.112Z,7.28
2023-03-18T00:20:59.083Z,6.90
2023-03-18T00:23:26.305Z,7.90
2023-03-18T00:25:57.245Z,6.55
2023-03-18T00:28:25.988Z,7.55
2023-03-18T00:30:53.803Z,7.75
2023-03-18T00:33:21.020Z,7.40
2023-03-18T00:35:48.183Z,7.40
2023-03-18T00:38:20.828Z,7.03
2023-03-18T00:41:01.278Z,6.90
2023-03-18T00:43:33.588Z,6.60
2023-03-18T00:46:00.678Z,6.97
2023-03-18T00:48:27.946Z,6.97
2023-03-18T00:50:54.784Z,7.45
2023-03-18T00:53:21.961Z,6.35
2023-03-18T00:55:48.744Z,6.85
2023-03-18T00:58:15.516Z,6.70
2023-03-18T01:00:42.427Z,7.22
2023-03-18T01:03:09.300Z,7.00
2023-03-18T01:05:38.215Z,6.53
2023-03-18T01:08:05.115Z,6.38
2023-03-18T01:10:32.515Z,6.53
2023-03-18T01:12:59.470Z,6.50
2023-03-18T01:15:26.310Z,6.72
2023-03-18T01:17:56.973Z,6.93
2023-03-18T01:20:24.803Z,6.03
2023-03-18T01:22:51.648Z,7.07
2023-03-18T01:25:18.656Z,7.43
2023-03-18T01:27:45.434Z,6.57
2023-03-18T01:30:13.476Z,6.65
2023-03-18T01:32:41.276Z,6.43
2023-03-18T01:35:08.585Z,6.22
2023-03-18T01:37:35.562Z,6.97
2023-03-18T01:40:02.683Z,5.78
2023-03-18T01:42:29.528Z,6.65
2023-03-18T01:45:18.145Z,6.80
2023-03-18T01:47:46.569Z,6.10
2023-03-18T01:50:17.070Z,5.68
2023-03-18T01:52:46.716Z,6.40
2023-03-18T01:55:20.660Z,6.75
2023-03-18T01:57:49.667Z,6.05
2023-03-18T02:00:17.159Z,5.78
2023-03-18T02:02:45.608Z,5.32
2023-03-18T02:05:16.445Z,6.00
2023-03-18T02:07:44.536Z,5.40
2023-03-18T02:10:32.155Z,6.30
2023-03-18T02:13:03.714Z,6.80
2023-03-18T02:15:33.908Z,5.88
2023-03-18T02:18:14.470Z,5.55
2023-03-18T02:21:09.094Z,6.10
2023-03-18T02:24:03.090Z,5.88
2023-03-18T02:26:46.290Z,5.68
2023-03-18T02:29:15.902Z,6.10
2023-03-18T02:31:44.103Z,5.53
2023-03-18T02:34:11.987Z,6.55
2023-03-18T02:36:38.993Z,5.78
2023-03-18T02:39:05.971Z,5.70
2023-03-18T02:41:35.484Z,4.90
2023-03-18T02:44:02.682Z,4.90
2023-03-18T02:46:32.650Z,5.50
2023-03-18T02:49:06.727Z,5.32
2023-03-18T02:51:34.642Z,4.63
2023-03-18T02:54:16.978Z,5.75
2023-03-18T02:56:44.309Z,4.57
2023-03-18T02:59:13.240Z,4.47
2023-03-18T03:01:42.866Z,5.25
2023-03-18T03:04:10.579Z,4.53
2023-03-18T03:06:37.433Z,5.20
2023-03-18T03:09:09.713Z,4.85
2023-03-18T03:11:37.017Z,4.20
2023-03-18T03:14:04.242Z,5.05
2023-03-18T03:16:31.626Z,5.50
2023-03-18T03:18:58.889Z,4.47
2023-03-18T03:21:26.676Z,5.00
2023-03-18T03:23:54.544Z,4.97
2023-03-18T03:26:21.526Z,4.65
2023-03-18T03:28:48.574Z,4.85
2023-03-18T03:31:15.608Z,4.93
2023-03-18T03:33:43.785Z,4.38
2023-03-18T03:36:17.054Z,4.80
2023-03-18T03:38:44.334Z,4.95
2023-03-18T03:41:13.068Z,4.80
2023-03-18T03:43:40.989Z,4.45
2023-03-18T03:46:09.398Z,4.30
2023-03-18T03:48:36.457Z,4.10
2023-03-18T03:51:03.951Z,4.55
2023-03-18T03:53:30.973Z,4.30
2023-03-18T03:55:59.236Z,4.50
2023-03-18T03:58:26.687Z,4.35
2023-03-18T04:00:53.559Z,4.50
2023-03-18T04:03:20.378Z,4.70
2023-03-18T04:05:47.842Z,3.90
2023-03-18T04:08:14.649Z,3.72
2023-03-18T04:10:41.480Z,3.92
2023-03-18T04:13:08.880Z,3.95
2023-03-18T04:15:35.827Z,3.53
2023-03-18T04:18:06.860Z,4.32
2023-03-18T04:20:35.730Z,4.07
2023-03-18T04:23:02.816Z,3.50
2023-03-18T04:25:30.241Z,3.83
2023-03-18T04:27:57.588Z,3.40
2023-03-18T04:30:25.630Z,3.70
2023-03-18T04:32:53.153Z,3.35
2023-03-18T04:35:21.158Z,3.85
2023-03-18T04:37:48.739Z,3.40
2023-03-18T04:40:15.802Z,3.53
2023-03-18T04:42:43.215Z,3.90
2023-03-18T04:45:10.501Z,3.20
2023-03-18T04:47:38.268Z,4.00
2023-03-18T04:50:05.930Z,4.07
2023-03-18T04:52:33.677Z,3.30
2023-03-18T04:55:00.515Z,4.10
2023-03-18T04:57:28.574Z,3.60
2023-03-18T04:59:55.492Z,3.35
2023-03-18T05:02:22.435Z,3.38
2023-03-18T05:04:49.618Z,3.70
2023-03-18T05:07:17.082Z,3.65
2023-03-18T05:09:44.085Z,3.70
2023-03-18T05:12:16.298Z,3.42
2023-03-18T05:14:43.730Z,3.70
2023-03-18T05:17:15.696Z,3.75
2023-03-18T05:19:44.315Z,3.40
2023-03-18T05:22:11.944Z,3.50
2023-03-18T05:24:39.964Z,3.40
2023-03-18T05:27:07.177Z,3.50
2023-03-18T05:29:33.992Z,3.50
2023-03-18T05:32:00.870Z,3.17
2023-03-18T05:34:27.829Z,3.50
2023-03-18T05:36:54.581Z,3.00
2023-03-18T05:39:21.373Z,3.15
2023-03-18T05:41:48.137Z,3.17
2023-03-18T05:44:14.919Z,3.22
2023-03-18T05:46:41.917Z,2.83
2023-03-18T05:49:09.067Z,3.13
2023-03-18T05:51:36.376Z,3.63
2023-03-18T05:54:04.817Z,2.55
2023-03-18T05:56:32.769Z,3.10
2023-03-18T05:58:59.660Z,3.05
2023-03-18T06:01:26.464Z,3.13
2023-03-18T06:03:53.862Z,3.03
2023-03-18T06:06:20.677Z,3.33
2023-03-18T06:08:48.611Z,2.40
2023-03-18T06:11:15.456Z,2.83
2023-03-18T06:13:42.267Z,2.80
2023-03-18T06:16:09.238Z,3.00
2023-03-18T06:18:36.099Z,3.40
2023-03-18T06:21:03.085Z,2.70
2023-03-18T06:23:30.048Z,2.85
2023-03-18T06:25:56.885Z,3.80
2023-03-18T06:28:23.786Z,3.28
2023-03-18T06:30:50.733Z,2.90
2023-03-18T06:33:18.409Z,2.83
2023-03-18T06:35:48.236Z,3.03
2023-03-18T06:38:16.784Z,2.65
2023-03-18T06:40:44.543Z,2.75
2023-03-18T06:43:11.663Z,2.63
2023-03-18T06:45:40.277Z,3.13
2023-03-18T06:48:08.472Z,2.50
2023-03-18T06:50:35.394Z,2.65
2023-03-18T06:53:02.395Z,2.75
2023-03-18T06:55:29.399Z,2.88
2023-03-18T06:57:56.640Z,2.55
2023-03-18T07:00:24.921Z,3.15
2023-03-18T07:02:52.722Z,2.75
2023-03-18T07:05:20.840Z,2.67
2023-03-18T07:07:48.578Z,3.13
2023-03-18T07:10:22.704Z,2.65
2023-03-18T07:12:50.545Z,3.22
2023-03-18T07:15:20.319Z,3.22
2023-03-18T07:17:47.672Z,2.65
2023-03-18T07:20:16.216Z,3.40
2023-03-18T07:22:44.470Z,2.70
2023-03-18T07:25:11.780Z,2.80
2023-03-18T07:27:39.950Z,2.60
2023-03-18T07:30:09.689Z,2.40
2023-03-18T07:32:38.516Z,2.50
2023-03-18T07:35:06.631Z,3.13
2023-03-18T07:37:33.651Z,2.50
2023-03-18T07:40:00.560Z,2.70
2023-03-18T07:42:28.411Z,2.80
2023-03-18T07:44:55.302Z,3.10
2023-03-18T07:47:24.100Z,2.70
2023-03-18T07:49:52.024Z,3.30
2023-03-18T07:52:19.294Z,2.77
2023-03-18T07:54:46.227Z,3.33
2023-03-18T07:57:13.202Z,3.30
2023-03-18T07:59:40.518Z,2.77
2023-03-18T08:02:08.832Z,2.90
2023-03-18T08:04:35.716Z,2.93
2023-03-18T08:07:03.167Z,2.50
2023-03-18T08:09:30.040Z,2.70
2023-03-18T08:11:57.097Z,2.90
2023-03-18T08:14:24.333Z,2.90
2023-03-18T08:16:51.240Z,2.80
2023-03-18T08:19:18.254Z,2.30
2023-03-18T08:21:45.212Z,3.13
2023-03-18T08:24:12.388Z,2.90
2023-03-18T08:26:39.350Z,2.90
2023-03-18T08:29:06.250Z,2.80
2023-03-18T08:31:33.172Z,2.30
2023-03-18T08:34:00.652Z,2.80
2023-03-18T08:36:28.755Z,2.57
2023-03-18T08:38:56.577Z,2.90
2023-03-18T08:41:25.705Z,2.93
2023-03-18T08:43:53.242Z,2.70
2023-03-18T08:46:20.390Z,2.63
2023-03-18T08:48:47.377Z,2.80
2023-03-18T08:51:14.685Z,2.37
2023-03-18T08:53:41.502Z,2.80
2023-03-18T08:56:08.440Z,2.43
2023-03-18T08:58:35.407Z,2.20
2023-03-18T09:01:05.448Z,2.57
2023-03-18T09:03:33.880Z,2.60
2023-03-18T09:06:00.942Z,2.10
2023-03-18T09:08:29.470Z,2.40
2023-03-18T09:10:56.766Z,2.30
2023-03-18T09:13:23.944Z,2.80
2023-03-18T09:15:51.913Z,2.40
2023-03-18T09:18:19.582Z,2.47
2023-03-18T09:20:47.014Z,2.07
2023-03-18T09:23:15.782Z,2.37
2023-03-18T09:25:43.065Z,2.60
2023-03-18T09:28:10.079Z,2.50
2023-03-18T09:30:38.337Z,2.67
2023-03-18T09:33:09.429Z,2.33
2023-03-18T09:35:37.171Z,2.20
2023-03-18T09:38:04.797Z,2.53
2023-03-18T09:40:37.997Z,2.30
2023-03-18T09:43:23.689Z,2.13
2023-03-18T09:46:31.918Z,2.10
2023-03-18T09:49:19.647Z,2.30
2023-03-18T09:51:57.715Z,2.40
2023-03-18T09:54:55.207Z,2.60
2023-03-18T09:57:28.646Z,3.00
2023-03-18T10:00:18.475Z,2.57
2023-03-18T10:02:55.694Z,2.70
2023-03-18T10:05:35.276Z,2.50
2023-03-18T10:08:21.244Z,2.70
2023-03-18T10:10:49.076Z,3.13
2023-03-18T10:13:27.828Z,2.60
2023-03-18T10:15:57.053Z,2.77
2023-03-18T10:18:33.555Z,2.90
2023-03-18T10:21:04.065Z,3.00
2023-03-18T10:24:02.170Z,2.40
2023-03-18T10:26:34.776Z,2.57
2023-03-18T10:29:10.516Z,2.20
2023-03-18T10:31:48.114Z,2.40
2023-03-18T10:34:33.800Z,2.33
2023-03-18T10:37:06.394Z,1.90
2023-03-18T10:39:35.568Z,2.30
2023-03-18T10:42:20.681Z,2.17
2023-03-18T10:44:49.135Z,2.30
2023-03-18T10:47:21.688Z,1.80
2023-03-18T10:50:06.292Z,2.00
2023-03-18T10:52:40.435Z,2.33
2023-03-18T10:55:20.897Z,1.93
2023-03-18T10:57:47.839Z,1.90
2023-03-18T11:00:33.440Z,1.63
2023-03-18T11:03:02.168Z,2.60
2023-03-18T11:05:35.004Z,2.00
2023-03-18T11:08:05.384Z,2.87
2023-03-18T11:10:44.240Z,2.47
2023-03-18T11:13:18.306Z,3.30
2023-03-18T11:15:52.744Z,3.30
2023-03-18T11:18:27.482Z,2.60
2023-03-18T11:21:01.174Z,2.37
2023-03-18T11:23:56.528Z,2.60
2023-03-18T11:26:30.591Z,2.50
2023-03-18T11:29:11.160Z,3.00
2023-03-18T11:31:58.432Z,2.37
2023-03-18T11:34:27.124Z,3.23
2023-03-18T11:37:01.009Z,3.07
2023-03-18T11:39:34.597Z,2.90
2023-03-18T11:42:01.580Z,2.93
2023-03-18T11:44:33.207Z,2.97
2023-03-18T11:47:06.137Z,2.70
2023-03-18T11:49:34.414Z,2.90
2023-03-18T11:52:14.714Z,2.53
2023-03-18T11:54:41.977Z,2.50
2023-03-18T11:57:18.084Z,2.50
2023-03-18T12:00:02.643Z,2.43
2023-03-18T12:03:10.663Z,2.73
2023-03-18T12:05:53.379Z,2.50
2023-03-18T12:08:23.196Z,2.60
2023-03-18T12:11:07.425Z,2.20
2023-03-18T12:14:26.078Z,3.00
2023-03-18T12:17:07.501Z,2.37
2023-03-18T12:19:34.320Z,2.80
2023-03-18T12:22:14.121Z,2.40
2023-03-18T12:25:20.381Z,2.70
2023-03-18T12:28:02.831Z,2.80
2023-03-18T12:30:44.635Z,2.77
2023-03-18T12:33:38.850Z,2.60
2023-03-18T12:36:14.484Z,2.60
2023-03-18T12:38:51.661Z,2.60
2023-03-18T12:41:25.222Z,2.37
2023-03-18T12:44:10.730Z,2.63
2023-03-18T12:46:37.480Z,2.40
2023-03-18T12:49:14.539Z,2.50
2023-03-18T12:51:57.373Z,2.40
2023-03-18T12:54:33.506Z,2.53
2023-03-18T12:57:29.109Z,2.47
2023-03-18T13:00:06.694Z,2.10
2023-03-18T13:02:43.630Z,2.30
2023-03-18T13:05:32.811Z,2.80
2023-03-18T13:08:11.993Z,2.70
2023-03-18T13:10:38.814Z,2.60
2023-03-18T13:13:09.502Z,2.43
2023-03-18T13:15:52.733Z,2.13
2023-03-18T13:18:21.054Z,2.30
2023-03-18T13:20:49.388Z,2.73
2023-03-18T13:23:28.153Z,2.50
2023-03-18T13:26:22.800Z,2.57
2023-03-18T13:28:57.523Z,2.37
2023-03-18T13:31:49.766Z,2.73
2023-03-18T13:34:54.768Z,2.40
2023-03-18T13:38:00.038Z,2.77
2023-03-18T13:41:10.083Z,2.30
2023-03-18T13:43:40.798Z,2.30
2023-03-18T13:46:29.150Z,2.23
2023-03-18T13:48:58.896Z,2.07
2023-03-18T13:51:25.641Z,2.53
2023-03-18T13:54:00.798Z,2.40
2023-03-18T13:56:37.829Z,2.57
2023-03-18T13:59:06.595Z,1.90
2023-03-18T14:01:36.359Z,2.00
2023-03-18T14:04:32.455Z,1.80
2023-03-18T14:07:22.459Z,1.70
2023-03-18T14:10:15.195Z,1.83
2023-03-18T14:12:49.724Z,2.00
2023-03-18T14:15:35.763Z,2.40
2023-03-18T14:18:02.922Z,1.77
2023-03-18T14:20:41.903Z,2.07
2023-03-18T14:23:27.457Z,2.07
2023-03-18T14:26:03.431Z,2.10
2023-03-18T14:28:39.892Z,2.00
2023-03-18T14:31:25.654Z,2.40
2023-03-18T14:33:59.091Z,2.13
2023-03-18T14:36:46.749Z,2.60
2023-03-18T14:39:18.645Z,2.50
2023-03-18T14:41:49.249Z,2.00
2023-03-18T14:44:21.424Z,2.40
2023-03-18T14:46:58.294Z,2.10
2023-03-18T14:49:39.430Z,1.80
2023-03-18T14:52:18.159Z,2.07
2023-03-18T14:54:46.107Z,2.10
2023-03-18T14:57:13.396Z,1.80
2023-03-18T14:59:40.146Z,2.20
2023-03-18T15:02:21.125Z,2.20
2023-03-18T15:04:55.866Z,2.67
2023-03-18T15:07:37.334Z,2.93
2023-03-18T15:10:17.549Z,2.97
2023-03-18T15:12:44.537Z,3.10
2023-03-18T15:15:15.007Z,2.80
2023-03-18T15:17:46.806Z,4.20
2023-03-18T15:20:14.297Z,4.23
2023-03-18T15:22:42.062Z,4.10
2023-03-18T15:25:18.284Z,3.93
2023-03-18T15:27:46.138Z,3.90
2023-03-18T15:30:50.459Z,4.27
2023-03-18T15:33:21.048Z,3.77
2023-03-18T15:35:56.132Z,4.00
2023-03-18T15:38:28.840Z,4.23
2023-03-18T15:41:01.354Z,4.00
2023-03-18T15:43:47.197Z,4.13
2023-03-18T15:46:24.944Z,3.80
2023-03-18T15:48:56.846Z,3.87
2023-03-18T15:51:49.735Z,4.10
2023-03-18T15:54:28.154Z,4.53
2023-03-18T15:56:56.942Z,4.07
2023-03-18T15:59:29.123Z,4.03
2023-03-18T16:01:57.238Z,4.80
2023-03-18T16:04:25.636Z,4.53
2023-03-18T16:06:55.547Z,5.37
2023-03-18T16:09:24.970Z,4.50
2023-03-18T16:12:00.651Z,5.03
2023-03-18T16:14:37.836Z,5.20
2023-03-18T16:17:04.742Z,4.03
2023-03-18T16:19:32.463Z,4.97
2023-03-18T16:21:59.835Z,4.37
2023-03-18T16:24:27.126Z,5.03
2023-03-18T16:26:55.275Z,4.83
2023-03-18T16:29:30.992Z,4.17
2023-03-18T16:31:58.256Z,5.03
2023-03-18T16:34:25.159Z,4.40
2023-03-18T16:36:53.571Z,4.20
2023-03-18T16:39:33.920Z,4.13
2023-03-18T16:42:02.355Z,3.90
2023-03-18T16:44:29.712Z,4.47
2023-03-18T16:46:57.749Z,4.47
2023-03-18T16:49:29.494Z,3.90
2023-03-18T16:51:57.053Z,4.60
2023-03-18T16:54:25.860Z,3.77
2023-03-18T16:56:57.473Z,4.30
2023-03-18T16:59:29.570Z,4.23
2023-03-18T17:01:56.493Z,4.10
2023-03-18T17:04:30.413Z,4.27
2023-03-18T17:06:59.797Z,4.80
2023-03-18T17:09:27.686Z,4.20
2023-03-18T17:11:58.884Z,4.43
2023-03-18T17:14:40.482Z,4.47
2023-03-18T17:17:26.701Z,5.20
2023-03-18T17:19:53.762Z,5.20
2023-03-18T17:22:32.656Z,4.80
2023-03-18T17:25:02.789Z,5.23
2023-03-18T17:27:40.593Z,4.90
2023-03-18T17:30:21.868Z,5.90
2023-03-18T17:32:49.907Z,5.87
2023-03-18T17:35:19.370Z,5.83
2023-03-18T17:37:46.524Z,6.00
2023-03-18T17:40:16.105Z,5.53
2023-03-18T17:42:44.342Z,7.10
2023-03-18T17:45:33.253Z,6.10
2023-03-18T17:48:29.959Z,6.40
2023-03-18T17:51:18.724Z,5.90
2023-03-18T17:53:51.436Z,6.00
2023-03-18T17:56:19.526Z,5.90
2023-03-18T17:58:49.467Z,5.77
2023-03-18T18:01:24.372Z,5.13
2023-03-18T18:03:51.323Z,5.50
2023-03-18T18:06:29.197Z,5.77
2023-03-18T18:09:00.678Z,6.30
2023-03-18T18:11:37.896Z,5.50
2023-03-18T18:14:10.765Z,6.30
2023-03-18T18:16:37.621Z,5.37
2023-03-18T18:19:04.515Z,5.70
2023-03-18T18:21:31.415Z,5.37
2023-03-18T18:23:58.508Z,5.30
2023-03-18T18:26:25.535Z,5.30
2023-03-18T18:28:53.462Z,5.27
2023-03-18T18:31:24.163Z,6.27
2023-03-18T18:33:51.684Z,5.73
2023-03-18T18:36:18.529Z,5.50
2023-03-18T18:38:45.903Z,5.75
2023-03-18T18:41:13.009Z,5.40
2023-03-18T18:43:39.952Z,5.60
2023-03-18T18:46:13.875Z,5.40
2023-03-18T18:48:41.739Z,5.27
2023-03-18T18:51:18.858Z,5.50
2023-03-18T18:53:46.606Z,5.67
2023-03-18T18:56:32.319Z,6.20
2023-03-18T18:58:59.404Z,5.80
2023-03-18T19:01:27.081Z,6.17
2023-03-18T19:03:54.213Z,5.73
2023-03-18T19:06:26.148Z,6.30
2023-03-18T19:08:55.391Z,6.07
2023-03-18T19:11:24.641Z,6.77
2023-03-18T19:13:52.506Z,6.07
2023-03-18T19:16:25.302Z,8.03
2023-03-18T19:18:52.277Z,6.83
2023-03-18T19:21:19.244Z,7.30
2023-03-18T19:23:46.897Z,6.43
2023-03-18T19:26:16.235Z,6.57
2023-03-18T19:28:57.533Z,7.35
2023-03-18T19:31:30.336Z,6.77
2023-03-18T19:33:59.700Z,6.47
2023-03-18T19:36:41.122Z,7.60
2023-03-18T19:39:14.656Z,8.77
2023-03-18T19:41:41.813Z,9.60
2023-03-18T19:44:23.342Z,7.40
2023-03-18T19:46:54.055Z,7.47
2023-03-18T19:49:23.916Z,10.40
2023-03-18T19:51:51.152Z,11.40
2023-03-18T19:54:32.906Z,8.90
2023-03-18T19:57:22.599Z,8.80
2023-03-18T19:59:50.691Z,7.33
2023-03-18T20:02:21.898Z,7.47
2023-03-18T20:04:50.359Z,9.00
2023-03-18T20:07:18.936Z,7.78
2023-03-18T20:09:45.936Z,9.10
2023-03-18T20:12:37.516Z,8.77
2023-03-18T20:15:22.873Z,8.60
2023-03-18T20:17:51.149Z,8.57
2023-03-18T20:20:24.021Z,7.77
2023-03-18T20:23:03.501Z,6.82
2023-03-18T20:25:41.132Z,7.70
2023-03-18T20:28:14.438Z,7.43
2023-03-18T20:30:41.488Z,7.40
2023-03-18T20:33:08.879Z,7.35
2023-03-18T20:35:38.923Z,7.73
2023-03-18T20:38:30.210Z,7.63
2023-03-18T20:40:57.352Z,7.55
2023-03-18T20:43:25.863Z,9.27
2023-03-18T20:45:53.113Z,8.88
2023-03-18T20:48:21.007Z,8.38
2023-03-18T20:50:47.972Z,8.32
2023-03-18T20:53:18.598Z,7.60
2023-03-18T20:55:46.919Z,7.17
2023-03-18T20:58:25.502Z,7.35
2023-03-18T21:00:53.117Z,7.72
2023-03-18T21:03:31.526Z,7.65
2023-03-18T21:06:00.453Z,8.20
2023-03-18T21:08:28.529Z,8.20
2023-03-18T21:10:56.698Z,8.05
2023-03-18T21:13:31.152Z,8.50
2023-03-18T21:15:58.884Z,7.72
2023-03-18T21:18:27.645Z,7.97
2023-03-18T21:20:55.408Z,7.82
2023-03-18T21:23:27.801Z,8.00
2023-03-18T21:25:55.255Z,7.63
2023-03-18T21:28:25.547Z,8.52
2023-03-18T21:30:56.088Z,8.45
2023-03-18T21:33:28.474Z,8.90
2023-03-18T21:35:57.225Z,9.98
2023-03-18T21:38:28.793Z,8.75
2023-03-18T21:40:57.386Z,8.13
2023-03-18T21:43:36.015Z,8.85
2023-03-18T21:46:05.863Z,9.13
2023-03-18T21:48:33.153Z,9.40
2023-03-18T21:51:00.154Z,9.15
2023-03-18T21:53:28.448Z,9.40
2023-03-18T21:55:55.492Z,9.55
2023-03-18T21:58:24.845Z,9.40
2023-03-18T22:00:57.010Z,9.43
2023-03-18T22:03:27.153Z,9.00
2023-03-18T22:05:54.585Z,8.43
2023-03-18T22:08:22.121Z,9.40
2023-03-18T22:10:50.606Z,9.70
2023-03-18T22:13:22.554Z,8.63
2023-03-18T22:15:57.715Z,9.02
2023-03-18T22:18:25.647Z,9.25
2023-03-18T22:20:52.597Z,9.43
2023-03-18T22:23:21.644Z,8.73
2023-03-18T22:25:53.003Z,8.93
2023-03-18T22:28:20.844Z,9.30
2023-03-18T22:30:55.157Z,8.90
2023-03-18T22:33:26.668Z,9.82
2023-03-18T22:35:53.982Z,10.23
2023-03-18T22:38:22.533Z,9.95
2023-03-18T22:40:52.705Z,10.02
2023-03-18T22:43:33.512Z,9.90
2023-03-18T22:46:02.056Z,9.85
2023-03-18T22:48:29.401Z,9.57
2023-03-18T22:50:59.118Z,9.50
2023-03-18T22:53:38.423Z,10.07
2023-03-18T22:56:14.028Z,9.40
2023-03-18T22:58:42.087Z,10.18
2023-03-18T23:01:20.490Z,10.20
2023-03-18T23:03:47.656Z,9.52
2023-03-18T23:06:20.213Z,9.80
2023-03-18T23:08:47.488Z,10.52
2023-03-18T23:11:15.733Z,10.43
2023-03-18T23:13:46.483Z,10.65
2023-03-18T23:16:21.757Z,10.38
2023-03-18T23:18:49.246Z,11.35
2023-03-18T23:21:19.684Z,10.93
2023-03-18T23:23:46.923Z,10.77
2023-03-18T23:26:15.330Z,11.35
2023-03-18T23:28:44.897Z,10.73
2023-03-18T23:31:12.788Z,12.35
2023-03-18T23:33:39.893Z,12.20
2023-03-18T23:36:07.585Z,12.95
2023-03-18T23:38:34.722Z,11.63
2023-03-18T23:41:01.805Z,13.02
2023-03-18T23:43:28.715Z,14.25
2023-03-18T23:45:55.990Z,14.98
2023-03-18T23:48:22.931Z,16.25
2023-03-18T23:50:49.888Z,15.98
2023-03-18T23:53:17.041Z,16.08
2023-03-18T23:55:43.865Z,14.80
2023-03-18T23:58:10.893Z,15.57
